Time;durP1;ratioP1;P1;durP2;ratioP2;P2;SDS_P1;SDS_P2;PMS_P1;PMS_P2;Temp;Humidity;BMP_temperature;BMP_pressure;BME280_temperature;BME280_humidity;BME280_pressure;Samples;Min_cycle;Max_cycle;Signal;HPM_P1;HPM_P2
2021/11/16 00:02:01;;;;;;;52.08;16.58;;;;;;;;;;5048537;28;20513;-65
2021/11/16 00:04:30;;;;;;;46.25;15.07;;;;;;;;;;5052676;28;20052;-64
2021/11/16 00:06:58;;;;;;;49.75;15.52;;;;;;;;;;5059984;28;20513;-65
2021/11/16 00:09:26;;;;;;;41.47;14.55;;;;;;;;;;5049573;28;20041;-65
2021/11/16 00:11:55;;;;;;;45.35;15.00;;;;;;;;;;5044850;28;20063;-65
2021/11/16 00:14:23;;;;;;;43.17;13.95;;;;;;;;;;5045413;28;20133;-65
2021/11/16 00:16:51;;;;;;;46.67;15.07;;;;;;;;;;5039698;28;20057;-65
2021/11/16 00:19:21;;;;;;;39.80;13.40;;;;;;;;;;5032053;28;20052;-65
2021/11/16 00:21:50;;;;;;;43.08;14.00;;;;;;;;;;5043112;28;20063;-65
2021/11/16 00:24:22;;;;;;;41.58;14.57;;;;;;;;;;5044125;28;20037;-64
2021/11/16 00:26:50;;;;;;;43.60;14.77;;;;;;;;;;5044241;28;20045;-65
2021/11/16 00:29:18;;;;;;;44.30;14.82;;;;;;;;;;5037357;28;20059;-67
2021/11/16 00:31:47;;;;;;;45.85;13.55;;;;;;;;;;5038127;28;20598;-66
2021/11/16 00:34:15;;;;;;;44.65;14.68;;;;;;;;;;5039542;28;20076;-64
2021/11/16 00:36:45;;;;;;;46.65;13.95;;;;;;;;;;5047634;28;20077;-64
2021/11/16 00:39:13;;;;;;;46.05;14.60;;;;;;;;;;5059813;28;20128;-64
2021/11/16 00:41:43;;;;;;;43.33;13.30;;;;;;;;;;5045936;28;20053;-66
2021/11/16 00:44:11;;;;;;;42.03;14.35;;;;;;;;;;5045555;28;20069;-65
2021/11/16 00:46:39;;;;;;;42.85;14.38;;;;;;;;;;5042588;28;20132;-65
2021/11/16 00:49:07;;;;;;;46.38;14.50;;;;;;;;;;5054347;28;20420;-64
2021/11/16 00:51:36;;;;;;;35.72;12.15;;;;;;;;;;5048884;28;20696;-65
2021/11/16 00:54:06;;;;;;;40.50;14.15;;;;;;;;;;5048269;28;20076;-65
2021/11/16 00:56:34;;;;;;;41.33;13.52;;;;;;;;;;5044842;28;20519;-65
2021/11/16 00:59:02;;;;;;;43.15;13.98;;;;;;;;;;5047661;28;20049;-65
2021/11/16 01:01:31;;;;;;;49.10;13.02;;;;;;;;;;5045523;28;20167;-64
2021/11/16 01:04:00;;;;;;;43.25;13.00;;;;;;;;;;5044067;28;20132;-65
2021/11/16 01:06:29;;;;;;;37.83;12.70;;;;;;;;;;5055620;28;20437;-65
2021/11/16 01:08:57;;;;;;;35.40;12.57;;;;;;;;;;5053721;28;20076;-65
2021/11/16 01:11:27;;;;;;;50.08;15.05;;;;;;;;;;5050562;28;20151;-66
2021/11/16 01:13:55;;;;;;;38.58;12.82;;;;;;;;;;5047975;28;20075;-64
2021/11/16 01:16:24;;;;;;;46.28;14.55;;;;;;;;;;5045776;28;20180;-64
2021/11/16 01:18:52;;;;;;;38.30;12.80;;;;;;;;;;5048642;28;20041;-65
2021/11/16 01:21:20;;;;;;;40.45;12.73;;;;;;;;;;5052674;28;20560;-65
2021/11/16 01:23:49;;;;;;;38.33;13.88;;;;;;;;;;5046017;28;20124;-65
2021/11/16 01:26:17;;;;;;;42.25;14.15;;;;;;;;;;5055034;28;20567;-65
2021/11/16 01:29:00;;;;;;;35.70;9.17;;;;;;;;;;3110348;28;10003268;-65
2021/11/16 01:31:28;;;;;;;40.85;12.80;;;;;;;;;;2967508;28;10002040;-65
2021/11/16 01:33:58;;;;;;;43.67;12.60;;;;;;;;;;5049267;28;20060;-65
2021/11/16 01:36:26;;;;;;;42.15;12.93;;;;;;;;;;5053334;28;20055;-65
2021/11/16 01:38:57;;;;;;;42.65;12.73;;;;;;;;;;5052786;28;20044;-66
2021/11/16 01:41:26;;;;;;;45.65;14.27;;;;;;;;;;5053499;28;20143;-65
2021/11/16 01:43:55;;;;;;;41.72;12.68;;;;;;;;;;5052016;28;20130;-65
2021/11/16 01:46:25;;;;;;;44.75;14.77;;;;;;;;;;5051948;28;20248;-65
2021/11/16 01:48:54;;;;;;;37.45;14.00;;;;;;;;;;5050530;28;20052;-65
2021/11/16 01:51:24;;;;;;;44.35;15.18;;;;;;;;;;5038735;28;20136;-65
2021/11/16 01:53:56;;;;;;;47.00;14.00;;;;;;;;;;5047424;28;20136;-65
2021/11/16 01:56:24;;;;;;;45.00;12.63;;;;;;;;;;5058107;28;20527;-65
2021/11/16 01:58:53;;;;;;;40.38;13.60;;;;;;;;;;5050460;28;20072;-66
2021/11/16 02:01:21;;;;;;;40.70;14.65;;;;;;;;;;5051347;28;20103;-66
2021/11/16 02:03:51;;;;;;;41.80;14.55;;;;;;;;;;5047841;28;20099;-65
2021/11/16 02:06:20;;;;;;;44.47;14.45;;;;;;;;;;5051992;28;20079;-66
2021/11/16 02:08:49;;;;;;;48.42;14.35;;;;;;;;;;5045599;28;20128;-65
2021/11/16 02:11:18;;;;;;;41.08;12.93;;;;;;;;;;5059312;28;20059;-66
2021/11/16 02:13:46;;;;;;;45.55;14.68;;;;;;;;;;5050278;28;20148;-65
2021/11/16 02:16:15;;;;;;;34.40;12.65;;;;;;;;;;5061724;28;20471;-66
2021/11/16 02:18:43;;;;;;;46.20;14.55;;;;;;;;;;5051161;28;20049;-65
2021/11/16 02:21:13;;;;;;;45.35;13.95;;;;;;;;;;5062274;28;20073;-65
2021/11/16 02:23:43;;;;;;;43.28;14.25;;;;;;;;;;5050618;28;20123;-67
2021/11/16 02:26:11;;;;;;;46.70;14.98;;;;;;;;;;5058465;28;20125;-65
2021/11/16 02:28:43;;;;;;;40.95;14.57;;;;;;;;;;5049696;28;20045;-65
2021/11/16 02:31:12;;;;;;;45.88;14.63;;;;;;;;;;5052931;28;20486;-66
2021/11/16 02:33:40;;;;;;;46.55;14.38;;;;;;;;;;5053008;28;20060;-65
2021/11/16 02:36:09;;;;;;;47.80;15.02;;;;;;;;;;5047471;28;20049;-66
2021/11/16 02:38:39;;;;;;;51.25;14.70;;;;;;;;;;5053715;28;20148;-65
2021/11/16 02:41:07;;;;;;;45.40;13.50;;;;;;;;;;5071004;28;20492;-65
2021/11/16 02:43:37;;;;;;;45.20;13.50;;;;;;;;;;5055826;28;20773;-66
2021/11/16 02:46:06;;;;;;;39.80;13.07;;;;;;;;;;5043131;28;20473;-66
2021/11/16 02:48:35;;;;;;;44.70;13.52;;;;;;;;;;5052765;28;20393;-65
2021/11/16 02:51:05;;;;;;;39.00;13.13;;;;;;;;;;5054229;28;20499;-66
2021/11/16 02:53:33;;;;;;;41.55;12.57;;;;;;;;;;5050292;28;20439;-66
2021/11/16 02:56:03;;;;;;;48.90;14.20;;;;;;;;;;5050985;28;20084;-66
2021/11/16 02:58:31;;;;;;;44.08;14.27;;;;;;;;;;5054907;28;20124;-65
2021/11/16 03:01:03;;;;;;;56.78;16.20;;;;;;;;;;5061341;28;20151;-65
2021/11/16 03:03:31;;;;;;;46.45;14.48;;;;;;;;;;5042317;28;20519;-66
2021/11/16 03:05:59;;;;;;;50.78;15.52;;;;;;;;;;5051691;28;20080;-65
2021/11/16 03:08:29;;;;;;;50.30;15.90;;;;;;;;;;5060638;28;20510;-65
2021/11/16 03:10:58;;;;;;;51.80;14.52;;;;;;;;;;5047617;28;20041;-66
2021/11/16 03:13:32;;;;;;;54.83;16.20;;;;;;;;;;5037093;28;20053;-65
2021/11/16 03:16:00;;;;;;;56.78;15.13;;;;;;;;;;5052097;28;20068;-65
2021/11/16 03:18:28;;;;;;;48.08;15.23;;;;;;;;;;5053086;28;20073;-65
2021/11/16 03:20:56;;;;;;;53.70;16.35;;;;;;;;;;5049206;28;20061;-65
2021/11/16 03:23:26;;;;;;;56.70;16.17;;;;;;;;;;5043467;28;20141;-66
2021/11/16 03:25:56;;;;;;;52.85;16.20;;;;;;;;;;5048564;28;20128;-68
2021/11/16 03:28:26;;;;;;;53.83;15.52;;;;;;;;;;5045022;28;20478;-65
2021/11/16 03:30:59;;;;;;;53.05;15.55;;;;;;;;;;5048378;28;20492;-67
2021/11/16 03:33:27;;;;;;;61.45;16.15;;;;;;;;;;5044481;28;20044;-65
2021/11/16 03:35:56;;;;;;;50.78;15.70;;;;;;;;;;5047276;28;20172;-65
2021/11/16 03:38:24;;;;;;;50.42;16.10;;;;;;;;;;5052882;28;20075;-66
2021/11/16 03:40:55;;;;;;;53.10;15.25;;;;;;;;;;5048085;28;20503;-65
2021/11/16 03:43:23;;;;;;;55.00;15.30;;;;;;;;;;5049446;28;20042;-65
2021/11/16 03:45:52;;;;;;;53.38;16.40;;;;;;;;;;5049116;28;20144;-67
2021/11/16 03:48:22;;;;;;;55.78;16.58;;;;;;;;;;5050975;28;20050;-66
2021/11/16 03:50:50;;;;;;;54.25;15.35;;;;;;;;;;5057576;28;20110;-65
2021/11/16 03:53:19;;;;;;;56.83;16.42;;;;;;;;;;5053825;28;20140;-66
2021/11/16 03:55:48;;;;;;;47.90;14.98;;;;;;;;;;5050484;28;20100;-68
2021/11/16 03:58:17;;;;;;;60.67;17.35;;;;;;;;;;5050139;28;20121;-66
2021/11/16 04:00:49;;;;;;;58.67;17.15;;;;;;;;;;5049193;28;20559;-65
2021/11/16 04:03:19;;;;;;;66.78;15.98;;;;;;;;;;5048135;28;20421;-66
2021/11/16 04:05:48;;;;;;;52.60;15.80;;;;;;;;;;5051990;28;20127;-67
2021/11/16 04:08:17;;;;;;;60.25;16.73;;;;;;;;;;5052186;28;20366;-68
2021/11/16 04:10:45;;;;;;;56.38;15.65;;;;;;;;;;5048195;28;20485;-65
2021/11/16 04:13:14;;;;;;;57.08;16.95;;;;;;;;;;5046549;28;20418;-65
2021/11/16 04:15:45;;;;;;;60.13;16.50;;;;;;;;;;5047390;28;20139;-65
2021/11/16 04:18:13;;;;;;;48.63;14.07;;;;;;;;;;5049020;28;20064;-65
2021/11/16 04:20:44;;;;;;;62.65;16.88;;;;;;;;;;5055186;28;20088;-65
2021/11/16 04:23:15;;;;;;;51.10;15.55;;;;;;;;;;5050183;28;20132;-66
2021/11/16 04:25:45;;;;;;;57.55;16.00;;;;;;;;;;5051084;28;20059;-66
2021/11/16 04:28:14;;;;;;;52.42;14.93;;;;;;;;;;5052883;28;20628;-65
2021/11/16 04:30:44;;;;;;;48.83;13.38;;;;;;;;;;5048286;28;20064;-65
2021/11/16 04:33:13;;;;;;;58.35;15.65;;;;;;;;;;5042612;28;20238;-65
2021/11/16 04:35:42;;;;;;;50.45;14.57;;;;;;;;;;5050334;28;20084;-65
2021/11/16 04:38:12;;;;;;;48.67;14.05;;;;;;;;;;5048959;28;20055;-64
2021/11/16 04:40:43;;;;;;;49.05;14.60;;;;;;;;;;5045338;28;20602;-64
2021/11/16 04:43:14;;;;;;;47.08;14.88;;;;;;;;;;5046525;28;20059;-65
2021/11/16 04:45:43;;;;;;;59.25;15.75;;;;;;;;;;5054661;28;20049;-65
2021/11/16 04:48:26;;;;;;;50.55;14.80;;;;;;;;;;5047935;28;20546;-65
2021/11/16 04:51:07;;;;;;;47.67;14.80;;;;;;;;;;5046492;28;20132;-65
2021/11/16 04:53:55;;;;;;;46.20;13.30;;;;;;;;;;5044623;28;20516;-65
2021/11/16 05:04:57;;;;;;;41.20;13.38;;;;;;;;;;4997028;28;20050;-64
2021/11/16 05:07:28;;;;;;;40.25;13.98;;;;;;;;;;5028840;28;20041;-64
2021/11/16 05:09:57;;;;;;;44.42;13.80;;;;;;;;;;5050588;28;20486;-65
2021/11/16 05:12:29;;;;;;;50.00;13.45;;;;;;;;;;5047195;28;20333;-65
2021/11/16 05:14:57;;;;;;;46.08;14.20;;;;;;;;;;5049385;28;20045;-65
2021/11/16 05:17:26;;;;;;;39.05;12.90;;;;;;;;;;5061323;28;20578;-65
2021/11/16 05:19:55;;;;;;;36.90;12.32;;;;;;;;;;5047043;28;20099;-65
2021/11/16 05:22:24;;;;;;;39.72;12.80;;;;;;;;;;5047413;28;20037;-64
2021/11/16 05:24:52;;;;;;;38.53;12.52;;;;;;;;;;5048799;28;20072;-65
2021/11/16 05:27:20;;;;;;;38.83;11.98;;;;;;;;;;5048544;28;20136;-66
2021/11/16 05:29:50;;;;;;;37.70;12.25;;;;;;;;;;5044119;28;20128;-65
2021/11/16 05:32:19;;;;;;;33.08;10.40;;;;;;;;;;5046184;28;20045;-65
2021/11/16 05:34:47;;;;;;;39.30;10.73;;;;;;;;;;5052212;28;20048;-66
2021/11/16 05:37:16;;;;;;;39.25;11.45;;;;;;;;;;5048911;28;20144;-66
2021/11/16 05:39:44;;;;;;;41.60;11.98;;;;;;;;;;5053565;28;20080;-65
2021/11/16 05:42:13;;;;;;;44.10;12.43;;;;;;;;;;5040909;28;20052;-65
2021/11/16 05:44:41;;;;;;;33.15;10.77;;;;;;;;;;5047914;28;20067;-65
2021/11/16 05:47:11;;;;;;;41.33;11.15;;;;;;;;;;5048752;28;20037;-65
2021/11/16 05:49:39;;;;;;;38.80;11.23;;;;;;;;;;5055560;28;20079;-64
2021/11/16 05:52:08;;;;;;;31.10;9.60;;;;;;;;;;5046968;28;20534;-65
2021/11/16 05:54:36;;;;;;;37.38;11.65;;;;;;;;;;5045510;28;20080;-66
2021/11/16 05:57:06;;;;;;;34.22;9.98;;;;;;;;;;5051650;28;20060;-65
2021/11/16 05:59:35;;;;;;;33.22;10.93;;;;;;;;;;5048735;28;20128;-65
2021/11/16 06:02:04;;;;;;;37.38;11.70;;;;;;;;;;5050916;28;20559;-65
2021/11/16 06:04:34;;;;;;;30.27;10.65;;;;;;;;;;5043279;28;20049;-64
2021/11/16 06:07:03;;;;;;;29.00;10.35;;;;;;;;;;5044472;28;20143;-64
2021/11/16 06:09:32;;;;;;;37.90;10.98;;;;;;;;;;5031303;28;20049;-65
2021/11/16 06:12:01;;;;;;;37.67;11.23;;;;;;;;;;5041172;28;20053;-65
2021/11/16 06:14:30;;;;;;;37.35;10.70;;;;;;;;;;5052469;28;20076;-65
2021/11/16 06:16:59;;;;;;;35.78;10.95;;;;;;;;;;5053160;28;20744;-65
2021/11/16 06:19:27;;;;;;;26.88;9.77;;;;;;;;;;5051725;28;20049;-66
2021/11/16 06:21:57;;;;;;;27.85;9.68;;;;;;;;;;5038824;28;20140;-65
2021/11/16 06:24:25;;;;;;;31.13;9.98;;;;;;;;;;5032538;28;20096;-65
2021/11/16 06:26:53;;;;;;;28.33;8.63;;;;;;;;;;5047545;28;20156;-65
2021/11/16 06:29:22;;;;;;;26.92;9.10;;;;;;;;;;5048263;28;20053;-65
2021/11/16 06:31:50;;;;;;;27.00;9.88;;;;;;;;;;5050072;28;20141;-66
2021/11/16 06:34:20;;;;;;;31.33;9.27;;;;;;;;;;5055636;28;20133;-65
2021/11/16 06:36:48;;;;;;;25.33;8.70;;;;;;;;;;5047191;28;20056;-66
2021/11/16 06:39:19;;;;;;;28.13;8.90;;;;;;;;;;5048414;28;20144;-65
2021/11/16 06:41:48;;;;;;;25.85;7.13;;;;;;;;;;5048967;28;20053;-65
2021/11/16 06:44:19;;;;;;;26.55;8.13;;;;;;;;;;5047964;28;20107;-65
2021/11/16 06:46:48;;;;;;;24.35;8.02;;;;;;;;;;5044016;28;20580;-66
2021/11/16 06:49:17;;;;;;;25.05;8.55;;;;;;;;;;5048175;28;20056;-64
2021/11/16 06:51:46;;;;;;;25.42;7.85;;;;;;;;;;5047018;28;20144;-65
2021/11/16 06:54:16;;;;;;;24.90;7.50;;;;;;;;;;5048890;28;20127;-64
2021/11/16 06:56:48;;;;;;;25.48;8.43;;;;;;;;;;5039755;28;20112;-65
2021/11/16 06:59:17;;;;;;;26.45;7.72;;;;;;;;;;5047971;28;20085;-65
2021/11/16 07:01:45;;;;;;;19.30;7.10;;;;;;;;;;5047447;28;20132;-64
2021/11/16 07:04:15;;;;;;;21.77;7.55;;;;;;;;;;5049572;28;20133;-64
2021/11/16 07:06:44;;;;;;;20.08;7.15;;;;;;;;;;5046915;28;20072;-65
2021/11/16 07:09:13;;;;;;;23.27;7.97;;;;;;;;;;5041467;28;20179;-64
2021/11/16 07:11:47;;;;;;;18.42;6.53;;;;;;;;;;5044536;28;20054;-65
2021/11/16 07:14:17;;;;;;;22.00;7.68;;;;;;;;;;5066395;28;20084;-65
2021/11/16 07:16:59;;;;;;;18.50;6.95;;;;;;;;;;5049295;28;20045;-64
2021/11/16 07:19:31;;;;;;;19.27;6.95;;;;;;;;;;5031699;28;20114;-64
2021/11/16 07:22:03;;;;;;;18.55;6.70;;;;;;;;;;5043233;28;20050;-65
2021/11/16 07:24:32;;;;;;;17.60;6.15;;;;;;;;;;5047831;28;20432;-64
2021/11/16 07:27:07;;;;;;;25.00;6.53;;;;;;;;;;5039735;28;20049;-64
2021/11/16 07:29:38;;;;;;;19.10;6.28;;;;;;;;;;5047175;28;20135;-66
2021/11/16 07:32:07;;;;;;;19.73;6.18;;;;;;;;;;5050901;28;20047;-67
2021/11/16 07:34:37;;;;;;;13.35;5.03;;;;;;;;;;5047899;28;20617;-68
2021/11/16 07:37:07;;;;;;;15.13;5.78;;;;;;;;;;5049389;28;20111;-66
2021/11/16 07:39:45;;;;;;;15.63;4.88;;;;;;;;;;5050690;28;20076;-65
2021/11/16 07:42:15;;;;;;;13.77;5.50;;;;;;;;;;5053862;28;20045;-64
2021/11/16 07:44:59;;;;;;;13.57;6.05;;;;;;;;;;5042740;28;20080;-65
2021/11/16 07:47:35;;;;;;;14.32;5.65;;;;;;;;;;5039602;28;20044;-65
2021/11/16 07:50:05;;;;;;;15.63;5.45;;;;;;;;;;5050927;28;20068;-65
2021/11/16 07:52:33;;;;;;;15.88;5.18;;;;;;;;;;5049653;28;20133;-64
2021/11/16 07:55:02;;;;;;;17.08;5.72;;;;;;;;;;5056870;28;20052;-64
2021/11/16 07:57:32;;;;;;;13.40;5.20;;;;;;;;;;5052330;28;20410;-64
2021/11/16 08:00:00;;;;;;;13.32;4.95;;;;;;;;;;5049118;28;20045;-63
2021/11/16 08:02:31;;;;;;;14.85;5.53;;;;;;;;;;5047000;28;20491;-64
2021/11/16 08:05:22;;;;;;;14.07;5.53;;;;;;;;;;5049291;28;20667;-65
2021/11/16 08:08:07;;;;;;;15.65;5.70;;;;;;;;;;5049532;28;20053;-65
2021/11/16 08:10:38;;;;;;;14.65;5.15;;;;;;;;;;5044848;28;20083;-65
2021/11/16 08:13:15;;;;;;;13.80;5.53;;;;;;;;;;5048960;28;20471;-65
2021/11/16 08:15:43;;;;;;;14.18;5.22;;;;;;;;;;5050035;28;20382;-64
2021/11/16 08:18:14;;;;;;;13.00;5.07;;;;;;;;;;5055483;28;20094;-65
2021/11/16 08:20:43;;;;;;;12.90;5.07;;;;;;;;;;5048228;28;20136;-65
2021/11/16 08:23:12;;;;;;;13.38;5.40;;;;;;;;;;5048873;28;20088;-65
2021/11/16 08:25:41;;;;;;;14.02;4.85;;;;;;;;;;5044778;28;20056;-66
2021/11/16 08:28:11;;;;;;;16.75;5.93;;;;;;;;;;5048209;28;20045;-64
2021/11/16 08:30:40;;;;;;;14.15;4.90;;;;;;;;;;5041460;28;20049;-65
2021/11/16 08:33:09;;;;;;;11.82;3.92;;;;;;;;;;5047797;28;20106;-65
2021/11/16 08:35:38;;;;;;;14.73;6.03;;;;;;;;;;5060227;28;20574;-65
2021/11/16 08:38:11;;;;;;;13.50;5.30;;;;;;;;;;5056356;28;20091;-66
2021/11/16 08:40:45;;;;;;;15.05;4.68;;;;;;;;;;5048510;28;20045;-65
2021/11/16 08:43:17;;;;;;;12.00;4.35;;;;;;;;;;5029246;28;20111;-66
2021/11/16 08:45:49;;;;;;;12.32;4.80;;;;;;;;;;5050206;28;20099;-64
2021/11/16 08:48:18;;;;;;;11.48;4.10;;;;;;;;;;5054574;28;20435;-65
2021/11/16 08:50:48;;;;;;;12.30;4.80;;;;;;;;;;5053243;28;20049;-65
2021/11/16 08:53:22;;;;;;;11.77;4.65;;;;;;;;;;5048336;28;20049;-64
2021/11/16 08:55:51;;;;;;;12.13;4.97;;;;;;;;;;5053309;28;20138;-65
2021/11/16 08:58:21;;;;;;;13.50;4.13;;;;;;;;;;5047471;28;20129;-64
2021/11/16 09:00:53;;;;;;;11.40;4.80;;;;;;;;;;5046561;28;20384;-64
2021/11/16 09:03:25;;;;;;;15.75;4.80;;;;;;;;;;5042124;28;20080;-64
2021/11/16 09:05:54;;;;;;;11.02;3.83;;;;;;;;;;5049975;28;20053;-64
2021/11/16 09:08:25;;;;;;;10.48;3.83;;;;;;;;;;5047136;28;20123;-65
2021/11/16 09:10:56;;;;;;;11.80;4.22;;;;;;;;;;5060432;28;20106;-64
2021/11/16 09:13:31;;;;;;;9.05;3.38;;;;;;;;;;5048262;28;20052;-64
2021/11/16 09:16:05;;;;;;;9.60;4.43;;;;;;;;;;5038012;28;20124;-64
2021/11/16 09:18:38;;;;;;;10.82;4.30;;;;;;;;;;5048190;28;20056;-64
2021/11/16 09:21:09;;;;;;;10.25;3.92;;;;;;;;;;5041281;28;20496;-64
2021/11/16 09:23:40;;;;;;;11.63;5.18;;;;;;;;;;5045415;28;20119;-64
2021/11/16 09:26:14;;;;;;;9.85;3.63;;;;;;;;;;5048729;28;20048;-64
2021/11/16 09:28:48;;;;;;;12.82;4.45;;;;;;;;;;5045840;28;20119;-65
2021/11/16 09:31:18;;;;;;;12.10;3.90;;;;;;;;;;5049427;28;20049;-65
2021/11/16 09:33:47;;;;;;;9.77;4.13;;;;;;;;;;5036762;28;20045;-64
2021/11/16 09:36:21;;;;;;;9.45;4.32;;;;;;;;;;5041380;28;20053;-64
2021/11/16 09:38:52;;;;;;;9.57;4.07;;;;;;;;;;5041457;28;20052;-65
2021/11/16 09:41:30;;;;;;;9.18;4.05;;;;;;;;;;5037182;28;20037;-64
2021/11/16 09:44:03;;;;;;;9.77;4.15;;;;;;;;;;5048775;28;20102;-65
2021/11/16 09:46:32;;;;;;;7.75;3.50;;;;;;;;;;5039382;28;20050;-64
2021/11/16 09:49:02;;;;;;;8.65;3.17;;;;;;;;;;5047550;28;20459;-64
2021/11/16 09:51:30;;;;;;;9.45;3.83;;;;;;;;;;5051009;28;20163;-64
2021/11/16 09:54:04;;;;;;;10.10;3.63;;;;;;;;;;5051650;28;20083;-64
2021/11/16 09:56:34;;;;;;;10.25;3.80;;;;;;;;;;5052822;28;20091;-64
2021/11/16 09:59:05;;;;;;;10.98;4.53;;;;;;;;;;5046683;28;20053;-65
2021/11/16 10:01:35;;;;;;;11.77;4.43;;;;;;;;;;5048413;28;20055;-63
2021/11/16 10:04:08;;;;;;;12.18;4.57;;;;;;;;;;5051665;28;20056;-65
2021/11/16 10:06:37;;;;;;;9.45;3.70;;;;;;;;;;5052729;28;20080;-65
2021/11/16 10:09:06;;;;;;;12.63;4.25;;;;;;;;;;5049147;28;20440;-64
2021/11/16 10:11:40;;;;;;;16.98;5.50;;;;;;;;;;5052610;28;20081;-64
2021/11/16 10:14:13;;;;;;;12.90;4.35;;;;;;;;;;5050308;28;20453;-67
2021/11/16 10:16:46;;;;;;;12.40;4.53;;;;;;;;;;5037434;28;20485;-64
2021/11/16 10:19:37;;;;;;;12.82;5.32;;;;;;;;;;5057661;28;20049;-64
2021/11/16 10:22:11;;;;;;;15.80;4.90;;;;;;;;;;5051351;28;20059;-65
2021/11/16 10:24:44;;;;;;;10.85;4.63;;;;;;;;;;5062185;28;20056;-66
2021/11/16 10:27:31;;;;;;;9.40;3.92;;;;;;;;;;5044384;28;20148;-64
2021/11/16 10:30:07;;;;;;;14.23;5.35;;;;;;;;;;5065645;28;20139;-64
2021/11/16 10:32:37;;;;;;;12.38;4.28;;;;;;;;;;5051248;28;20439;-64
2021/11/16 10:35:11;;;;;;;14.32;5.30;;;;;;;;;;5053157;28;20080;-65
2021/11/16 10:37:52;;;;;;;13.98;5.43;;;;;;;;;;5050131;28;20053;-64
2021/11/16 10:40:23;;;;;;;12.18;4.60;;;;;;;;;;5054290;28;20044;-65
2021/11/16 10:42:55;;;;;;;12.23;4.82;;;;;;;;;;5051056;28;20148;-64
2021/11/16 10:45:29;;;;;;;13.35;4.85;;;;;;;;;;5051076;28;20041;-64
2021/11/16 10:48:01;;;;;;;12.30;4.55;;;;;;;;;;5044484;28;20081;-64
2021/11/16 10:50:34;;;;;;;12.00;4.63;;;;;;;;;;5060827;28;20040;-64
2021/11/16 10:53:06;;;;;;;10.63;4.55;;;;;;;;;;5050338;28;20049;-64
2021/11/16 10:55:37;;;;;;;13.18;4.40;;;;;;;;;;5051515;28;20053;-64
2021/11/16 10:58:06;;;;;;;11.48;4.10;;;;;;;;;;5043373;28;20085;-65
2021/11/16 11:00:42;;;;;;;11.07;4.03;;;;;;;;;;5050762;28;20056;-66
2021/11/16 11:03:21;;;;;;;10.18;3.85;;;;;;;;;;5049082;28;20511;-64
2021/11/16 11:05:54;;;;;;;9.63;3.17;;;;;;;;;;5042011;28;20041;-64
2021/11/16 11:08:32;;;;;;;7.13;2.78;;;;;;;;;;5051313;28;20488;-64
2021/11/16 11:11:01;;;;;;;9.93;3.40;;;;;;;;;;5050935;28;20045;-64
2021/11/16 11:13:30;;;;;;;12.50;3.30;;;;;;;;;;5049889;28;20549;-63
2021/11/16 11:16:01;;;;;;;8.98;3.33;;;;;;;;;;5050063;28;20480;-66
2021/11/16 11:18:34;;;;;;;8.55;3.83;;;;;;;;;;5045785;28;20071;-64
2021/11/16 11:21:04;;;;;;;13.05;4.10;;;;;;;;;;5047258;28;20045;-66
2021/11/16 11:23:37;;;;;;;8.95;3.13;;;;;;;;;;5048104;28;20098;-64
2021/11/16 11:26:22;;;;;;;8.48;3.65;;;;;;;;;;5051259;28;20087;-67
2021/11/16 11:29:15;;;;;;;8.60;3.38;;;;;;;;;;5044616;28;20049;-64
2021/11/16 11:31:45;;;;;;;9.50;3.72;;;;;;;;;;5048517;28;20049;-64
2021/11/16 11:34:14;;;;;;;9.95;3.60;;;;;;;;;;5050435;28;20037;-64
2021/11/16 11:36:48;;;;;;;12.95;4.93;;;;;;;;;;5049624;28;20523;-65
2021/11/16 11:39:22;;;;;;;9.60;3.60;;;;;;;;;;5043258;28;20481;-64
2021/11/16 11:41:55;;;;;;;11.38;4.18;;;;;;;;;;5048446;28;20049;-64
2021/11/16 11:44:24;;;;;;;12.25;4.57;;;;;;;;;;5050894;28;20139;-64
2021/11/16 11:46:57;;;;;;;10.63;4.28;;;;;;;;;;5050664;28;20099;-64
2021/11/16 11:49:27;;;;;;;11.98;4.32;;;;;;;;;;5050927;28;20049;-64
2021/11/16 11:52:01;;;;;;;9.10;3.63;;;;;;;;;;5049252;28;20076;-64
2021/11/16 11:54:30;;;;;;;13.63;4.03;;;;;;;;;;5050281;28;20087;-66
2021/11/16 11:56:59;;;;;;;10.57;4.55;;;;;;;;;;5039586;28;20041;-64
2021/11/16 11:59:35;;;;;;;9.93;3.40;;;;;;;;;;5050412;28;20048;-65
2021/11/16 12:02:11;;;;;;;10.23;4.28;;;;;;;;;;5044795;28;20102;-67
2021/11/16 12:04:46;;;;;;;14.00;4.25;;;;;;;;;;5050373;28;20056;-64
2021/11/16 12:07:15;;;;;;;;;;;;;;;;;;5041744;28;20068;-65
2021/11/16 12:09:44;;;;;;;12.75;4.70;;;;;;;;;;5050441;28;19966;-64
2021/11/16 12:12:14;;;;;;;11.18;4.50;;;;;;;;;;5049174;28;20072;-64
2021/11/16 12:14:46;;;;;;;11.65;4.32;;;;;;;;;;5045771;28;20125;-64
2021/11/16 12:17:18;;;;;;;11.07;3.78;;;;;;;;;;5049116;28;20052;-64
2021/11/16 12:19:52;;;;;;;13.20;4.47;;;;;;;;;;5049417;28;20068;-64
2021/11/16 12:22:25;;;;;;;15.52;5.03;;;;;;;;;;5047042;28;20040;-64
2021/11/16 12:24:55;;;;;;;16.08;4.80;;;;;;;;;;5049296;28;20559;-64
2021/11/16 12:27:29;;;;;;;11.18;4.03;;;;;;;;;;5048099;28;20527;-66
2021/11/16 12:29:58;;;;;;;13.35;4.47;;;;;;;;;;5045759;28;20504;-67
2021/11/16 12:32:31;;;;;;;10.55;3.60;;;;;;;;;;5046558;28;20163;-64
2021/11/16 12:35:03;;;;;;;9.57;4.10;;;;;;;;;;5049219;28;20114;-65
2021/11/16 12:37:36;;;;;;;10.65;4.13;;;;;;;;;;5043656;28;20471;-66
2021/11/16 12:40:06;;;;;;;12.40;4.50;;;;;;;;;;5050294;28;20071;-64
2021/11/16 12:42:35;;;;;;;10.27;4.30;;;;;;;;;;5050660;28;20049;-64
2021/11/16 12:45:07;;;;;;;12.68;4.63;;;;;;;;;;5053652;28;20044;-66
2021/11/16 12:47:56;;;;;;;15.85;5.65;;;;;;;;;;5053825;28;20130;-66
2021/11/16 12:50:24;;;;;;;11.07;3.97;;;;;;;;;;5053097;28;20048;-64
2021/11/16 12:52:54;;;;;;;14.13;4.90;;;;;;;;;;5048157;28;20045;-65
2021/11/16 12:55:24;;;;;;;15.75;4.10;;;;;;;;;;5049392;28;20085;-64
2021/11/16 12:57:53;;;;;;;12.98;5.30;;;;;;;;;;5051097;28;20041;-65
2021/11/16 13:00:32;;;;;;;12.10;4.70;;;;;;;;;;5050956;28;20045;-64
2021/11/16 13:03:05;;;;;;;12.10;4.70;;;;;;;;;;5054058;28;20051;-64
2021/11/16 13:05:35;;;;;;;16.67;4.78;;;;;;;;;;5049431;28;20049;-64
2021/11/16 13:08:05;;;;;;;10.68;4.82;;;;;;;;;;5045185;28;20099;-65
2021/11/16 13:10:35;;;;;;;10.73;4.50;;;;;;;;;;5045771;28;20048;-64
2021/11/16 13:13:15;;;;;;;10.15;4.43;;;;;;;;;;5044298;28;20049;-64
2021/11/16 13:15:45;;;;;;;14.05;4.65;;;;;;;;;;5041857;28;20405;-64
2021/11/16 13:18:29;;;;;;;11.93;4.72;;;;;;;;;;5051972;28;20048;-64
2021/11/16 13:21:09;;;;;;;10.48;4.20;;;;;;;;;;5034475;28;20493;-64
2021/11/16 13:23:42;;;;;;;12.05;4.45;;;;;;;;;;5052951;28;20107;-66
2021/11/16 13:26:20;;;;;;;11.05;4.15;;;;;;;;;;5047540;28;20057;-66
2021/11/16 13:28:57;;;;;;;13.63;4.30;;;;;;;;;;5052388;28;20508;-65
2021/11/16 13:31:33;;;;;;;13.10;4.50;;;;;;;;;;5047783;28;20139;-65
2021/11/16 13:34:04;;;;;;;13.70;5.35;;;;;;;;;;5047790;28;20052;-64
2021/11/16 13:36:41;;;;;;;13.15;4.95;;;;;;;;;;5051546;28;20056;-65
2021/11/16 13:39:10;;;;;;;14.18;5.10;;;;;;;;;;5053649;28;20420;-66
2021/11/16 13:41:44;;;;;;;15.35;5.70;;;;;;;;;;5044320;28;20053;-64
2021/11/16 13:44:14;;;;;;;14.10;5.47;;;;;;;;;;5048130;28;20060;-65
2021/11/16 13:46:44;;;;;;;16.38;5.43;;;;;;;;;;5048394;28;20532;-64
2021/11/16 13:49:20;;;;;;;14.10;5.70;;;;;;;;;;5048157;28;20049;-65
2021/11/16 13:51:49;;;;;;;15.25;5.10;;;;;;;;;;5034415;28;20064;-67
2021/11/16 13:54:18;;;;;;;12.00;5.38;;;;;;;;;;5051813;28;20052;-65
2021/11/16 13:56:49;;;;;;;14.27;5.15;;;;;;;;;;5041265;28;20055;-65
2021/11/16 13:59:20;;;;;;;13.77;5.30;;;;;;;;;;5047358;28;20061;-65
2021/11/16 14:01:49;;;;;;;15.98;5.57;;;;;;;;;;5048879;28;20531;-65
2021/11/16 14:04:24;;;;;;;17.95;5.40;;;;;;;;;;5048619;28;20045;-65
2021/11/16 14:06:52;;;;;;;16.23;5.15;;;;;;;;;;5048228;28;20382;-65
2021/11/16 14:09:23;;;;;;;20.13;6.03;;;;;;;;;;5035414;28;20076;-64
2021/11/16 14:11:52;;;;;;;11.88;4.38;;;;;;;;;;5058819;28;20445;-64
2021/11/16 14:14:22;;;;;;;14.80;5.50;;;;;;;;;;5043992;28;20064;-64
2021/11/16 14:16:52;;;;;;;16.25;5.18;;;;;;;;;;5053725;28;20056;-64
2021/11/16 14:19:22;;;;;;;13.70;4.70;;;;;;;;;;5051805;28;20083;-64
2021/11/16 14:21:53;;;;;;;17.27;5.15;;;;;;;;;;5067116;28;20052;-66
2021/11/16 14:24:29;;;;;;;12.63;5.38;;;;;;;;;;5040358;28;20048;-65
2021/11/16 14:26:58;;;;;;;12.50;4.78;;;;;;;;;;5047718;28;20049;-64
2021/11/16 14:29:26;;;;;;;15.52;4.50;;;;;;;;;;5049029;28;20044;-65
2021/11/16 14:31:56;;;;;;;13.45;5.30;;;;;;;;;;5045125;28;20429;-64
2021/11/16 14:34:26;;;;;;;16.75;4.95;;;;;;;;;;5045955;28;20045;-65
2021/11/16 14:36:59;;;;;;;13.57;4.57;;;;;;;;;;5049299;28;20040;-65
2021/11/16 14:39:31;;;;;;;14.05;4.72;;;;;;;;;;5047795;28;20060;-65
2021/11/16 14:42:04;;;;;;;12.68;3.92;;;;;;;;;;5043635;28;20049;-65
2021/11/16 14:44:34;;;;;;;14.38;5.15;;;;;;;;;;5064043;28;20063;-64
2021/11/16 14:47:09;;;;;;;9.38;4.40;;;;;;;;;;5050583;28;20049;-67
2021/11/16 14:49:52;;;;;;;9.65;3.78;;;;;;;;;;5060500;28;20076;-65
2021/11/16 14:52:23;;;;;;;14.23;4.60;;;;;;;;;;5038394;28;20106;-64
2021/11/16 14:54:53;;;;;;;11.70;5.03;;;;;;;;;;5051691;28;20045;-65
2021/11/16 14:57:32;;;;;;;13.02;4.68;;;;;;;;;;5047791;28;20447;-64